Time;durP1;ratioP1;P1;durP2;ratioP2;P2;SDS_P1;SDS_P2;PMS_P1;PMS_P2;Temp;Humidity;BMP_temperature;BMP_pressure;BME280_temperature;BME280_humidity;BME280_pressure;Samples;Min_cycle;Max_cycle;Signal;HPM_P1;HPM_P2
2023/07/28 00:02:04;;;;;;;15.20;10.48;;;17.40;99.90;;;;;;5076054;28;20102;-69
2023/07/28 00:04:30;;;;;;;12.60;8.77;;;17.50;99.90;;;;;;5076064;28;20489;-69
2023/07/28 00:06:55;;;;;;;11.45;9.00;;;17.50;99.90;;;;;;5075824;28;20025;-69
2023/07/28 00:09:22;;;;;;;14.60;9.27;;;17.40;99.90;;;;;;5075823;28;20035;-69
2023/07/28 00:11:48;;;;;;;13.75;8.68;;;17.50;99.90;;;;;;5075856;28;20509;-69
2023/07/28 00:14:14;;;;;;;15.20;8.90;;;17.40;99.90;;;;;;5075406;28;20028;-69
2023/07/28 00:16:40;;;;;;;9.80;7.72;;;17.40;99.90;;;;;;5075723;28;20384;-69
2023/07/28 00:19:05;;;;;;;10.30;7.95;;;17.50;99.90;;;;;;5075616;28;20425;-69
2023/07/28 00:21:31;;;;;;;11.90;8.32;;;17.40;99.90;;;;;;5075478;28;20020;-69
2023/07/28 00:23:56;;;;;;;12.73;8.43;;;17.40;99.90;;;;;;5075458;28;20451;-69
2023/07/28 00:26:22;;;;;;;12.88;10.15;;;17.40;99.90;;;;;;5075389;28;20029;-69
2023/07/28 00:28:47;;;;;;;15.15;10.60;;;17.40;99.90;;;;;;5075310;28;20037;-69
2023/07/28 00:31:13;;;;;;;13.75;10.88;;;17.40;99.90;;;;;;5075559;28;20028;-69
2023/07/28 00:33:38;;;;;;;16.48;12.35;;;17.50;99.90;;;;;;5075302;28;20085;-69
2023/07/28 00:36:04;;;;;;;14.88;10.68;;;17.40;99.90;;;;;;5074968;28;20454;-69
2023/07/28 00:38:29;;;;;;;12.68;10.90;;;17.40;99.90;;;;;;5075374;28;20100;-69
2023/07/28 00:40:55;;;;;;;14.60;11.25;;;17.40;99.90;;;;;;5075367;28;20044;-69
2023/07/28 00:43:20;;;;;;;15.60;11.23;;;17.30;99.90;;;;;;5075099;28;20021;-69
2023/07/28 00:45:46;;;;;;;17.98;12.15;;;17.40;99.90;;;;;;5075011;28;20033;-69
2023/07/28 00:48:13;;;;;;;17.63;11.43;;;17.30;99.90;;;;;;5075002;28;20035;-69
2023/07/28 00:50:45;;;;;;;16.48;12.02;;;17.40;99.90;;;;;;5075020;28;20117;-69
2023/07/28 00:53:11;;;;;;;19.60;11.88;;;17.30;99.90;;;;;;5074930;28;20576;-69
2023/07/28 00:55:38;;;;;;;19.02;13.27;;;17.30;99.90;;;;;;5074978;28;20040;-69
2023/07/28 00:58:03;;;;;;;21.10;13.48;;;17.40;99.90;;;;;;5075105;28;20025;-69
2023/07/28 01:00:29;;;;;;;21.08;14.70;;;17.30;99.90;;;;;;5074835;28;20118;-69
2023/07/28 01:02:55;;;;;;;23.13;16.75;;;17.40;99.90;;;;;;5073522;28;20023;-70
2023/07/28 01:05:26;;;;;;;24.35;16.92;;;17.30;99.90;;;;;;5074822;28;20020;-69
2023/07/28 01:08:02;;;;;;;31.42;18.38;;;17.40;99.90;;;;;;5074781;28;20020;-70
2023/07/28 01:10:32;;;;;;;29.90;18.42;;;17.50;99.90;;;;;;5074779;28;20020;-70
2023/07/28 01:12:57;;;;;;;27.88;19.20;;;17.40;99.90;;;;;;5074743;28;20389;-69
2023/07/28 01:15:23;;;;;;;28.48;18.45;;;17.20;99.90;;;;;;5074487;28;20032;-69
2023/07/28 01:17:49;;;;;;;30.90;19.90;;;17.00;99.90;;;;;;5074322;28;20099;-70
2023/07/28 01:20:15;;;;;;;30.30;19.40;;;17.40;99.90;;;;;;5074573;28;20549;-70
2023/07/28 01:23:21;;;;;;;30.60;19.55;;;17.40;99.90;;;;;;5074545;28;20390;-69
2023/07/28 01:26:14;;;;;;;32.42;19.48;;;17.40;99.90;;;;;;5074472;28;20508;-70
2023/07/28 01:28:41;;;;;;;30.52;19.40;;;17.40;99.90;;;;;;5074366;28;20024;-70
2023/07/28 01:31:08;;;;;;;26.58;18.17;;;17.40;99.90;;;;;;5072840;28;20035;-70
2023/07/28 01:33:34;;;;;;;28.70;18.67;;;17.40;99.90;;;;;;5074148;28;20028;-70
2023/07/28 01:36:00;;;;;;;27.15;17.70;;;17.40;99.90;;;;;;5072611;28;20045;-70
2023/07/28 01:38:27;;;;;;;25.90;17.23;;;17.40;99.90;;;;;;5074207;28;20029;-70
2023/07/28 01:40:53;;;;;;;23.98;17.02;;;17.40;99.90;;;;;;5073819;28;20027;-69
2023/07/28 01:43:19;;;;;;;25.98;17.67;;;17.40;99.90;;;;;;5074024;28;20472;-70
2023/07/28 01:45:45;;;;;;;28.90;17.35;;;17.50;99.90;;;;;;5073860;28;20108;-70
2023/07/28 01:48:10;;;;;;;25.52;17.05;;;17.40;99.90;;;;;;5073825;28;20024;-70
2023/07/28 01:50:36;;;;;;;23.33;16.95;;;17.50;99.90;;;;;;5073797;28;20394;-70
2023/07/28 01:53:02;;;;;;;26.95;17.05;;;17.40;99.90;;;;;;5073749;28;20418;-70
2023/07/28 01:55:28;;;;;;;32.42;18.40;;;17.40;99.90;;;;;;5073642;28;20032;-70
2023/07/28 01:57:57;;;;;;;27.05;17.45;;;17.40;99.90;;;;;;5073563;28;20028;-69
2023/07/28 02:00:23;;;;;;;32.75;19.92;;;17.50;99.90;;;;;;5072423;28;20027;-69
2023/07/28 02:02:49;;;;;;;28.77;19.55;;;;;;;;;;5073835;28;20029;-70
2023/07/28 02:05:14;;;;;;;26.88;19.20;;;17.40;99.90;;;;;;5071996;28;20067;-69
2023/07/28 02:07:40;;;;;;;30.95;20.52;;;17.40;99.90;;;;;;5073733;28;20085;-69
2023/07/28 02:10:06;;;;;;;30.13;20.35;;;17.40;99.90;;;;;;5073472;28;20021;-69
2023/07/28 02:12:31;;;;;;;40.78;23.13;;;17.40;99.90;;;;;;5073597;28;20021;-70
2023/07/28 02:14:57;;;;;;;33.50;23.05;;;17.40;99.90;;;;;;5073363;28;20035;-70
2023/07/28 02:17:23;;;;;;;32.03;21.52;;;17.40;99.90;;;;;;5073525;28;20162;-69
2023/07/28 02:19:48;;;;;;;38.97;21.90;;;17.40;99.90;;;;;;5073316;28;20393;-70
2023/07/28 02:22:14;;;;;;;33.63;21.55;;;17.40;99.90;;;;;;5073370;28;20025;-69
2023/07/28 02:24:39;;;;;;;34.72;21.48;;;17.40;99.90;;;;;;5073535;28;20027;-69
2023/07/28 02:27:05;;;;;;;30.15;20.95;;;17.40;99.90;;;;;;5073375;28;20078;-69
2023/07/28 02:29:30;;;;;;;32.92;21.88;;;17.40;99.90;;;;;;5073273;28;20032;-69
2023/07/28 02:31:56;;;;;;;30.45;20.58;;;17.40;99.90;;;;;;5073468;28;20501;-69
2023/07/28 02:34:21;;;;;;;32.00;20.75;;;17.40;99.90;;;;;;5073007;28;20107;-70
2023/07/28 02:36:47;;;;;;;32.92;20.52;;;17.40;99.90;;;;;;5073377;28;20021;-69
2023/07/28 02:39:13;;;;;;;31.77;20.33;;;17.40;99.90;;;;;;5073065;28;20114;-69
2023/07/28 02:41:38;;;;;;;35.63;21.45;;;17.40;99.90;;;;;;5073464;28;20036;-70
2023/07/28 02:44:04;;;;;;;34.30;21.55;;;17.40;99.90;;;;;;5073052;28;20024;-68
2023/07/28 02:46:30;;;;;;;37.45;21.05;;;17.40;99.90;;;;;;5073352;28;20028;-69
2023/07/28 02:48:55;;;;;;;35.45;21.38;;;17.40;99.90;;;;;;5073040;28;20024;-68
2023/07/28 02:51:21;;;;;;;33.35;20.75;;;17.30;99.90;;;;;;5073113;28;20039;-70
2023/07/28 02:53:46;;;;;;;35.88;21.40;;;17.40;99.90;;;;;;5073036;28;20428;-70
2023/07/28 02:56:12;;;;;;;29.17;19.10;;;17.50;99.90;;;;;;5072990;28;20024;-70
2023/07/28 02:58:37;;;;;;;30.92;18.83;;;17.40;99.90;;;;;;5073027;28;20485;-70
2023/07/28 03:01:03;;;;;;;30.08;18.42;;;17.40;99.90;;;;;;5073028;28;20070;-69
2023/07/28 03:03:28;;;;;;;28.95;17.45;;;17.40;99.90;;;;;;5073097;28;20440;-70
2023/07/28 03:05:54;;;;;;;24.63;16.08;;;17.40;99.90;;;;;;5072859;28;20107;-70
2023/07/28 03:08:20;;;;;;;24.67;16.67;;;17.40;99.90;;;;;;5072847;28;20115;-70
2023/07/28 03:10:46;;;;;;;20.90;14.70;;;17.40;99.90;;;;;;5071956;28;20027;-70
2023/07/28 03:13:11;;;;;;;24.42;15.45;;;17.40;99.90;;;;;;5073057;28;20033;-70
2023/07/28 03:15:37;;;;;;;26.20;16.73;;;17.40;99.90;;;;;;5072974;28;20064;-70
2023/07/28 03:18:02;;;;;;;30.73;17.20;;;17.40;99.90;;;;;;5074246;28;20382;-70
2023/07/28 03:20:28;;;;;;;23.08;15.68;;;17.40;99.90;;;;;;5076658;28;20021;-70
2023/07/28 03:22:54;;;;;;;24.90;16.70;;;17.40;99.90;;;;;;5076640;28;20030;-70
2023/07/28 03:25:20;;;;;;;23.95;16.27;;;17.40;99.90;;;;;;5076780;28;20046;-70
2023/07/28 03:27:46;;;;;;;26.27;16.70;;;17.40;99.90;;;;;;5076503;28;20024;-70
2023/07/28 03:30:12;;;;;;;21.52;15.25;;;;;;;;;;5076450;28;20020;-70
2023/07/28 03:32:38;;;;;;;22.70;14.43;;;;;;;;;;5076413;28;20112;-70
2023/07/28 03:35:05;;;;;;;22.83;15.30;;;17.40;99.90;;;;;;5076341;28;20044;-70
2023/07/28 03:37:31;;;;;;;19.83;13.88;;;17.40;99.90;;;;;;5076487;28;20032;-70
2023/07/28 03:39:57;;;;;;;19.30;13.48;;;17.40;99.90;;;;;;5076487;28;20108;-70
2023/07/28 03:42:22;;;;;;;23.33;13.07;;;17.40;99.90;;;;;;5076200;28;20064;-70
2023/07/28 03:44:48;;;;;;;21.05;13.98;;;17.40;99.90;;;;;;5076326;28;20078;-70
2023/07/28 03:47:13;;;;;;;19.90;13.23;;;17.40;99.90;;;;;;5076157;28;20111;-70
2023/07/28 03:49:39;;;;;;;21.27;13.70;;;17.40;99.90;;;;;;5076108;28;20028;-70
2023/07/28 03:52:05;;;;;;;19.33;13.07;;;;;;;;;;5076239;28;20036;-70
2023/07/28 03:54:31;;;;;;;19.73;14.23;;;17.50;99.90;;;;;;5076030;28;20112;-70
2023/07/28 03:56:58;;;;;;;18.70;13.88;;;17.70;99.90;;;;;;5075807;28;20131;-70
2023/07/28 03:59:24;;;;;;;21.05;14.10;;;17.40;99.90;;;;;;5076144;28;20514;-70
2023/07/28 04:01:49;;;;;;;18.80;12.75;;;17.50;99.90;;;;;;5075817;28;20111;-70
2023/07/28 04:04:15;;;;;;;18.10;11.68;;;17.50;99.90;;;;;;5075953;28;20028;-70
2023/07/28 04:06:50;;;;;;;19.75;13.23;;;;;;;;;;5074653;28;20393;-70
2023/07/28 04:09:16;;;;;;;18.38;12.50;;;17.40;99.90;;;;;;5075997;28;20078;-70
2023/07/28 04:11:43;;;;;;;17.17;11.95;;;17.50;99.90;;;;;;5075924;28;20054;-70
2023/07/28 04:14:08;;;;;;;19.75;12.75;;;17.40;99.90;;;;;;5075890;28;20384;-70
2023/07/28 04:16:34;;;;;;;17.65;12.13;;;17.50;99.90;;;;;;5075598;28;20024;-70
2023/07/28 04:19:00;;;;;;;16.13;11.77;;;17.50;99.90;;;;;;5075983;28;20113;-70
2023/07/28 04:21:25;;;;;;;18.95;12.43;;;17.50;99.90;;;;;;5074668;28;20443;-70
2023/07/28 04:23:51;;;;;;;18.58;12.23;;;17.50;99.90;;;;;;5074569;28;20016;-70
2023/07/28 04:26:17;;;;;;;16.40;12.20;;;17.50;99.90;;;;;;5075318;28;20075;-70
2023/07/28 04:28:43;;;;;;;17.35;11.57;;;17.50;99.90;;;;;;5075098;28;20033;-70
2023/07/28 04:31:09;;;;;;;18.80;12.52;;;17.50;99.90;;;;;;5075478;28;20504;-70
2023/07/28 04:33:34;;;;;;;16.60;12.27;;;17.50;99.90;;;;;;5075372;28;20028;-70
2023/07/28 04:36:02;;;;;;;16.23;11.80;;;17.40;99.90;;;;;;5074959;28;20071;-70
2023/07/28 04:38:28;;;;;;;21.15;13.00;;;17.60;99.90;;;;;;5075256;28;20429;-70
2023/07/28 04:40:54;;;;;;;18.13;12.18;;;17.60;99.90;;;;;;5075159;28;20016;-70
2023/07/28 04:43:19;;;;;;;21.40;11.95;;;17.50;99.90;;;;;;5074956;28;20033;-71
2023/07/28 04:45:45;;;;;;;18.58;12.20;;;17.60;99.90;;;;;;5074995;28;20141;-70
2023/07/28 04:48:10;;;;;;;16.33;11.80;;;17.70;99.90;;;;;;5075321;28;20032;-70
2023/07/28 04:50:36;;;;;;;20.15;13.07;;;17.70;99.90;;;;;;5075620;28;20044;-70
2023/07/28 04:53:02;;;;;;;17.55;12.35;;;17.70;99.90;;;;;;5075726;28;20474;-70
2023/07/28 04:55:27;;;;;;;17.23;12.25;;;17.70;99.90;;;;;;5075543;28;20111;-69
2023/07/28 04:57:53;;;;;;;16.58;11.10;;;17.70;99.90;;;;;;5075547;28;20024;-70
2023/07/28 05:00:19;;;;;;;19.58;12.52;;;17.70;99.90;;;;;;5075267;28;20103;-69
2023/07/28 05:02:44;;;;;;;18.85;12.75;;;17.70;99.90;;;;;;5075043;28;20107;-69
2023/07/28 05:05:10;;;;;;;21.60;12.38;;;17.80;99.90;;;;;;5074912;28;20024;-69
2023/07/28 05:07:35;;;;;;;17.95;12.20;;;17.70;99.90;;;;;;5074729;28;20092;-69
2023/07/28 05:10:02;;;;;;;16.85;11.13;;;17.80;99.90;;;;;;5074647;28;20052;-69
2023/07/28 05:12:28;;;;;;;15.68;11.10;;;17.80;99.90;;;;;;5074568;28;20097;-69
2023/07/28 05:14:53;;;;;;;15.32;10.93;;;17.70;99.90;;;;;;5074322;28;20111;-70
2023/07/28 05:17:19;;;;;;;17.85;12.00;;;17.90;99.90;;;;;;5074262;28;20035;-71
2023/07/28 05:19:44;;;;;;;17.88;11.38;;;17.80;99.90;;;;;;5074549;28;20020;-71
2023/07/28 05:22:10;;;;;;;15.60;11.55;;;17.80;99.90;;;;;;5074554;28;20052;-71
2023/07/28 05:24:36;;;;;;;19.80;11.80;;;17.90;99.90;;;;;;5074479;28;20024;-71
2023/07/28 05:27:01;;;;;;;17.33;11.75;;;17.80;99.90;;;;;;5074415;28;20036;-71
2023/07/28 05:29:27;;;;;;;13.93;10.40;;;17.90;99.90;;;;;;5074339;28;20028;-75
2023/07/28 05:31:52;;;;;;;16.60;10.65;;;17.90;99.90;;;;;;5074208;28;20033;-71
2023/07/28 05:34:18;;;;;;;14.30;9.95;;;17.90;99.90;;;;;;5074104;28;20074;-71
2023/07/28 05:36:44;;;;;;;14.40;10.63;;;18.00;99.90;;;;;;5074251;28;20061;-72
2023/07/28 05:39:10;;;;;;;16.25;10.52;;;18.00;99.90;;;;;;5074141;28;20414;-71
2023/07/28 05:41:37;;;;;;;13.88;9.15;;;18.00;99.90;;;;;;5072068;28;20020;-70
2023/07/28 05:44:03;;;;;;;13.52;9.57;;;18.00;99.90;;;;;;5074206;28;20222;-71
2023/07/28 05:46:28;;;;;;;12.57;8.98;;;18.10;99.90;;;;;;5073783;28;20141;-71
2023/07/28 05:48:55;;;;;;;15.45;10.18;;;18.00;99.90;;;;;;5074009;28;20449;-71
2023/07/28 05:51:21;;;;;;;12.93;9.75;;;18.10;99.90;;;;;;5073994;28;20036;-72
2023/07/28 05:53:47;;;;;;;14.18;9.52;;;18.10;99.90;;;;;;5073867;28;20040;-71
2023/07/28 05:56:13;;;;;;;14.40;10.05;;;18.10;99.90;;;;;;5056589;28;20029;-71
2023/07/28 05:58:38;;;;;;;15.65;10.60;;;18.10;99.90;;;;;;5051230;28;20057;-71
2023/07/28 06:01:04;;;;;;;16.45;11.45;;;18.20;99.90;;;;;;5049713;28;20100;-72
2023/07/28 06:03:30;;;;;;;21.40;12.63;;;18.20;99.90;;;;;;5055387;28;20390;-72
2023/07/28 06:05:56;;;;;;;18.85;12.43;;;18.20;99.90;;;;;;5052970;28;20103;-71
2023/07/28 06:08:22;;;;;;;16.42;10.93;;;18.30;99.90;;;;;;5064680;28;20029;-71
2023/07/28 06:10:47;;;;;;;18.73;12.18;;;18.20;99.90;;;;;;5052562;28;20082;-70
2023/07/28 06:13:13;;;;;;;19.83;11.80;;;18.20;99.90;;;;;;5056680;28;20526;-72
2023/07/28 06:15:39;;;;;;;19.95;12.80;;;18.20;99.90;;;;;;5052364;28;20025;-72
2023/07/28 06:18:05;;;;;;;17.35;11.68;;;18.30;99.90;;;;;;5053625;28;20017;-72
2023/07/28 06:20:30;;;;;;;17.50;12.20;;;18.30;99.90;;;;;;5054862;28;20028;-72
2023/07/28 06:22:56;;;;;;;19.42;12.88;;;18.30;99.90;;;;;;5060908;28;20025;-72
2023/07/28 06:25:22;;;;;;;16.55;13.13;;;18.30;99.90;;;;;;5048489;28;20037;-72
2023/07/28 06:27:47;;;;;;;15.15;12.23;;;18.30;99.90;;;;;;5060056;28;20025;-72
2023/07/28 06:30:13;;;;;;;16.98;12.25;;;18.30;99.90;;;;;;5061540;28;20145;-73
2023/07/28 06:32:39;;;;;;;16.85;13.68;;;18.50;99.90;;;;;;5051156;28;20025;-70
2023/07/28 06:35:06;;;;;;;21.52;13.60;;;18.50;99.90;;;;;;5052107;28;20521;-72
2023/07/28 06:37:32;;;;;;;18.35;15.02;;;18.50;99.90;;;;;;5054898;28;20032;-72
2023/07/28 06:39:59;;;;;;;20.33;14.18;;;18.40;99.90;;;;;;5055044;28;20025;-71
2023/07/28 06:42:25;;;;;;;18.40;14.63;;;18.50;99.90;;;;;;5062267;28;20024;-72
2023/07/28 06:44:51;;;;;;;22.02;15.52;;;18.50;99.90;;;;;;5056441;28;20040;-71
2023/07/28 06:47:17;;;;;;;20.13;15.32;;;18.50;99.90;;;;;;5064167;28;20025;-72
2023/07/28 06:49:43;;;;;;;18.38;14.77;;;18.60;99.90;;;;;;5046543;28;20032;-71
2023/07/28 06:52:08;;;;;;;21.80;16.27;;;18.60;99.90;;;;;;5050668;28;20036;-71
2023/07/28 06:54:34;;;;;;;24.70;18.65;;;18.50;99.90;;;;;;5054815;28;20070;-70
2023/07/28 06:57:00;;;;;;;27.30;20.15;;;18.50;99.90;;;;;;5071761;28;20070;-72
2023/07/28 06:59:25;;;;;;;34.05;22.25;;;18.60;99.90;;;;;;5058550;28;20066;-71
2023/07/28 07:01:51;;;;;;;29.48;22.38;;;18.60;99.90;;;;;;5054065;28;20033;-71
2023/07/28 07:04:16;;;;;;;32.92;22.92;;;18.70;99.90;;;;;;5053406;28;20031;-71
2023/07/28 07:06:42;;;;;;;36.45;24.80;;;18.70;99.90;;;;;;5057172;28;20029;-72
2023/07/28 07:09:08;;;;;;;34.42;24.90;;;18.60;99.90;;;;;;5056085;28;20116;-70
2023/07/28 07:11:33;;;;;;;35.47;25.02;;;18.60;99.90;;;;;;5074091;28;20086;-72
2023/07/28 07:13:59;;;;;;;43.35;25.98;;;18.60;99.90;;;;;;5053589;28;20536;-72
2023/07/28 07:16:24;;;;;;;37.08;26.08;;;18.60;99.90;;;;;;5057721;28;20474;-72
2023/07/28 07:18:52;;;;;;;37.83;26.52;;;18.30;99.90;;;;;;5056281;28;20025;-72
2023/07/28 07:21:18;;;;;;;38.17;24.63;;;18.70;99.90;;;;;;5055918;28;20029;-72
2023/07/28 07:23:43;;;;;;;36.88;25.83;;;18.70;99.90;;;;;;5056919;28;20052;-72
2023/07/28 07:26:09;;;;;;;34.95;25.95;;;18.70;99.90;;;;;;5050921;28;20074;-72
2023/07/28 07:28:35;;;;;;;32.78;24.92;;;18.70;99.90;;;;;;5052722;28;20072;-72
2023/07/28 07:31:01;;;;;;;35.78;25.88;;;18.60;99.90;;;;;;5053790;28;20399;-72
2023/07/28 07:33:27;;;;;;;37.17;27.13;;;18.70;99.90;;;;;;5071940;28;20033;-72
2023/07/28 07:35:53;;;;;;;37.95;27.42;;;18.70;99.90;;;;;;5058550;28;20547;-72
2023/07/28 07:38:18;;;;;;;37.72;26.95;;;18.70;99.90;;;;;;5061204;28;20033;-72
2023/07/28 07:40:47;;;;;;;39.67;26.98;;;18.70;99.90;;;;;;5054736;28;20074;-71
2023/07/28 07:43:18;;;;;;;35.90;25.83;;;18.80;99.90;;;;;;5054569;28;20025;-72
2023/07/28 07:45:46;;;;;;;37.78;27.40;;;18.80;99.90;;;;;;5058531;28;20478;-72
2023/07/28 07:48:12;;;;;;;37.97;25.85;;;18.90;99.90;;;;;;5063164;28;20029;-72
2023/07/28 07:50:38;;;;;;;31.80;24.58;;;18.90;99.90;;;;;;5057446;28;20091;-71
2023/07/28 07:53:04;;;;;;;31.95;23.27;;;;;;;;;;5056483;28;20037;-72
2023/07/28 07:55:31;;;;;;;29.42;23.08;;;19.00;99.90;;;;;;5064879;28;20035;-72
2023/07/28 07:57:57;;;;;;;32.40;24.10;;;19.00;99.90;;;;;;5054296;28;20079;-72
2023/07/28 08:00:23;;;;;;;29.35;22.42;;;20.00;99.90;;;;;;5058495;28;20029;-72
2023/07/28 08:02:49;;;;;;;29.85;22.02;;;19.10;99.90;;;;;;5054376;28;20412;-71
2023/07/28 08:05:15;;;;;;;26.85;21.27;;;19.30;99.90;;;;;;5056271;28;20023;-73
2023/07/28 08:07:41;;;;;;;27.77;20.70;;;19.40;99.90;;;;;;5064579;28;20517;-72
2023/07/28 08:10:06;;;;;;;26.23;20.08;;;19.50;99.90;;;;;;5058507;28;20169;-70
2023/07/28 08:12:32;;;;;;;23.88;19.38;;;19.50;99.90;;;;;;5051706;28;20535;-72
2023/07/28 08:14:58;;;;;;;23.77;20.10;;;19.40;99.90;;;;;;5059166;28;20028;-72
2023/07/28 08:17:23;;;;;;;28.17;22.20;;;19.50;99.90;;;;;;5044840;28;20390;-73
2023/07/28 08:19:49;;;;;;;29.13;23.60;;;19.50;99.90;;;;;;5063535;28;20032;-72
2023/07/28 08:22:15;;;;;;;31.13;24.02;;;19.70;99.90;;;;;;5059739;28;20025;-71
2023/07/28 08:24:40;;;;;;;31.48;23.30;;;20.00;99.90;;;;;;5055563;28;20020;-72
2023/07/28 08:27:06;;;;;;;31.50;23.13;;;20.20;99.90;;;;;;5053563;28;20029;-72
2023/07/28 08:29:32;;;;;;;26.13;20.73;;;20.20;99.90;;;;;;5052635;28;20398;-72
2023/07/28 08:31:57;;;;;;;21.05;17.02;;;20.10;99.90;;;;;;5055329;28;20426;-72
2023/07/28 08:34:24;;;;;;;27.88;20.60;;;20.00;99.90;;;;;;5057569;28;20033;-72
2023/07/28 08:36:49;;;;;;;28.20;21.35;;;20.10;99.90;;;;;;5057652;28;20479;-72
2023/07/28 08:39:15;;;;;;;31.05;22.42;;;20.00;99.90;;;;;;5062545;28;20087;-72
2023/07/28 08:41:41;;;;;;;29.52;22.17;;;20.00;99.90;;;;;;5054371;28;20075;-73
2023/07/28 08:44:07;;;;;;;27.52;20.13;;;20.20;99.90;;;;;;5055794;28;20558;-72
2023/07/28 08:46:34;;;;;;;29.80;20.70;;;20.30;99.90;;;;;;5055979;28;20035;-70
2023/07/28 08:49:00;;;;;;;27.45;20.77;;;20.50;99.90;;;;;;5068739;28;20051;-72
2023/07/28 08:51:26;;;;;;;29.17;22.77;;;20.50;99.90;;;;;;5055747;28;20029;-72
2023/07/28 08:53:52;;;;;;;28.70;22.20;;;20.30;99.90;;;;;;5056535;28;20032;-72
2023/07/28 08:56:18;;;;;;;26.70;22.75;;;20.30;99.90;;;;;;5059091;28;20520;-72
2023/07/28 08:58:44;;;;;;;27.58;21.73;;;20.30;99.90;;;;;;5060639;28;20025;-72
2023/07/28 09:01:10;;;;;;;26.13;22.13;;;20.60;99.90;;;;;;5054793;28;20036;-72
2023/07/28 09:03:41;;;;;;;25.83;22.60;;;20.70;99.90;;;;;;5059909;28;20030;-72
2023/07/28 09:06:08;;;;;;;28.33;24.50;;;20.50;99.90;;;;;;5036277;28;20025;-73
2023/07/28 09:08:36;;;;;;;25.63;22.85;;;20.40;99.90;;;;;;5040197;28;20044;-71
2023/07/28 09:11:04;;;;;;;25.77;23.08;;;20.40;99.90;;;;;;5054471;28;20091;-72
2023/07/28 09:13:36;;;;;;;23.77;21.05;;;20.20;99.90;;;;;;5055047;28;20030;-73
2023/07/28 09:16:02;;;;;;;22.43;20.03;;;20.20;99.90;;;;;;5053302;28;20123;-72
2023/07/28 09:18:28;;;;;;;24.80;19.42;;;20.20;99.90;;;;;;5055712;28;20107;-73
2023/07/28 09:20:53;;;;;;;23.05;20.08;;;20.20;99.90;;;;;;5049011;28;20029;-71
2023/07/28 09:23:28;;;;;;;19.02;17.00;;;20.30;99.90;;;;;;5051529;28;20029;-71
2023/07/28 09:26:00;;;;;;;19.83;14.55;;;20.50;99.90;;;;;;5051183;28;20307;-71
2023/07/28 09:28:42;;;;;;;14.90;13.13;;;20.70;99.90;;;;;;5053477;28;20510;-71
2023/07/28 09:31:09;;;;;;;19.42;12.63;;;21.00;99.90;;;;;;5050173;28;20040;-72
2023/07/28 09:33:36;;;;;;;14.73;13.18;;;21.20;99.90;;;;;;5050969;28;20036;-73
2023/07/28 09:36:11;;;;;;;12.40;10.85;;;21.50;99.90;;;;;;5052384;28;20162;-72
2023/07/28 09:38:38;;;;;;;9.85;8.95;;;21.60;99.90;;;;;;5057057;28;20033;-72
2023/07/28 09:41:07;;;;;;;9.70;8.70;;;21.70;99.90;;;;;;5055615;28;20028;-72
2023/07/28 09:43:33;;;;;;;10.30;9.18;;;21.70;99.90;;;;;;5051731;28;20032;-73
2023/07/28 09:46:00;;;;;;;11.57;9.70;;;21.40;99.90;;;;;;5053352;28;20457;-72
2023/07/28 09:48:31;;;;;;;9.98;9.07;;;21.30;99.90;;;;;;5057114;28;20480;-72
2023/07/28 09:51:02;;;;;;;16.00;14.25;;;21.30;99.90;;;;;;5052708;28;20037;-72
2023/07/28 09:53:28;;;;;;;19.75;16.65;;;21.10;99.90;;;;;;5053354;28;20036;-73
2023/07/28 09:55:56;;;;;;;20.98;17.02;;;20.80;99.90;;;;;;5059332;28;20474;-72
2023/07/28 09:58:25;;;;;;;18.63;16.35;;;20.80;99.90;;;;;;5059307;28;20112;-72
2023/07/28 10:00:51;;;;;;;17.80;16.00;;;20.80;99.90;;;;;;5061352;28;20032;-72
2023/07/28 10:03:16;;;;;;;18.30;16.23;;;20.90;99.90;;;;;;5050385;28;20355;-72
2023/07/28 10:05:43;;;;;;;16.58;14.70;;;20.80;99.90;;;;;;5051228;28;20096;-72
2023/07/28 10:08:10;;;;;;;17.95;16.23;;;20.90;99.90;;;;;;5048763;28;20020;-73
2023/07/28 10:10:35;;;;;;;18.63;16.77;;;20.90;99.90;;;;;;5049252;28;20482;-73
2023/07/28 10:13:02;;;;;;;17.83;15.95;;;20.90;99.90;;;;;;5047603;28;20032;-73
2023/07/28 10:15:31;;;;;;;19.02;17.08;;;21.00;99.90;;;;;;5060696;28;20029;-73
2023/07/28 10:17:58;;;;;;;16.10;14.02;;;21.20;99.90;;;;;;5041132;28;20505;-73
2023/07/28 10:20:42;;;;;;;15.18;13.57;;;21.30;99.90;;;;;;5046954;28;20052;-72
2023/07/28 10:23:13;;;;;;;15.90;14.10;;;21.40;99.90;;;;;;5047200;28;20565;-73
2023/07/28 10:25:40;;;;;;;21.48;18.85;;;21.70;99.90;;;;;;5058333;28;20445;-73
2023/07/28 10:28:08;;;;;;;20.45;16.90;;;21.70;99.90;;;;;;5051231;28;20393;-73
2023/07/28 10:30:37;;;;;;;22.23;19.83;;;;;;;;;;5058538;28;20367;-73
2023/07/28 10:33:02;;;;;;;23.20;19.92;;;22.10;99.90;;;;;;5058079;28;20470;-73
2023/07/28 10:35:31;;;;;;;24.27;21.02;;;22.30;99.90;;;;;;5055966;28;20063;-72
2023/07/28 10:37:58;;;;;;;22.10;19.80;;;22.70;99.90;;;;;;5036008;28;20053;-73
2023/07/28 10:40:29;;;;;;;22.17;19.88;;;22.90;51.60;;;;;;5054118;28;20036;-73
2023/07/28 10:42:56;;;;;;;23.45;20.85;;;22.90;51.30;;;;;;5046848;28;20479;-74
2023/07/28 10:45:23;;;;;;;22.80;20.45;;;;;;;;;;5072113;28;20039;-77
2023/07/28 10:47:49;;;;;;;20.13;18.15;;;23.00;32.30;;;;;;5057266;28;20083;-72
2023/07/28 10:50:15;;;;;;;20.75;18.52;;;23.30;10.10;;;;;;5063541;28;20029;-74
2023/07/28 10:52:42;;;;;;;18.63;16.63;;;23.60;42.10;;;;;;5048300;28;20072;-73
2023/07/28 10:55:20;;;;;;;19.27;17.38;;;23.70;1.00;;;;;;5060420;28;20148;-75
2023/07/28 10:57:47;;;;;;;19.48;17.45;;;24.00;1.00;;;;;;5058628;28;20489;-75
2023/07/28 11:00:14;;;;;;;18.25;16.45;;;23.70;1.00;;;;;;5064357;28;20242;-73
2023/07/28 11:02:55;;;;;;;19.33;16.83;;;;;;;;;;5060175;28;20021;-73
2023/07/28 11:05:23;;;;;;;22.23;20.08;;;23.40;1.00;;;;;;5056884;28;20034;-73
2023/07/28 11:07:50;;;;;;;22.08;19.88;;;23.00;14.90;;;;;;5045063;28;20030;-72
2023/07/28 11:10:16;;;;;;;22.15;20.02;;;22.90;37.00;;;;;;5064751;28;20474;-73
2023/07/28 11:12:44;;;;;;;19.85;17.90;;;22.80;47.20;;;;;;5057985;28;20060;-75
2023/07/28 11:15:11;;;;;;;16.67;15.07;;;22.90;51.70;;;;;;5059049;28;20028;-72
2023/07/28 11:17:39;;;;;;;15.30;13.70;;;23.20;44.50;;;;;;5053615;28;20088;-72
2023/07/28 11:20:18;;;;;;;11.63;10.43;;;23.90;10.70;;;;;;5059134;28;20036;-73
2023/07/28 11:22:45;;;;;;;11.30;9.80;;;24.10;1.00;;;;;;5051115;28;20029;-73
2023/07/28 11:25:11;;;;;;;11.20;10.15;;;24.20;1.00;;;;;;5052583;28;20021;-74
2023/07/28 11:27:38;;;;;;;9.70;8.80;;;24.30;1.00;;;;;;5052257;28;20033;-73
2023/07/28 11:30:05;;;;;;;10.38;9.38;;;24.70;1.00;;;;;;5061285;28;20124;-73
2023/07/28 11:32:31;;;;;;;9.77;8.85;;;24.20;1.00;;;;;;5062102;28;20136;-73
2023/07/28 11:35:13;;;;;;;10.95;8.10;;;24.00;1.00;;;;;;5066024;28;20438;-72
2023/07/28 11:37:41;;;;;;;8.77;8.05;;;23.90;1.00;;;;;;5050366;28;20033;-73
2023/07/28 11:40:08;;;;;;;8.25;7.40;;;23.50;1.00;;;;;;5048606;28;20083;-72
2023/07/28 11:42:35;;;;;;;7.25;6.30;;;23.30;1.00;;;;;;5057895;28;20056;-72
2023/07/28 11:45:03;;;;;;;7.00;5.53;;;;;;;;;;5061590;28;20036;-72
2023/07/28 11:47:28;;;;;;;5.85;5.20;;;23.10;21.70;;;;;;5070313;28;20033;-73
2023/07/28 11:49:54;;;;;;;7.65;6.03;;;23.20;42.00;;;;;;5057864;28;20025;-72
2023/07/28 11:52:21;;;;;;;6.78;5.38;;;23.50;25.10;;;;;;5057278;28;20474;-73
2023/07/28 11:54:47;;;;;;;7.22;5.55;;;23.70;1.20;;;;;;5066603;28;20028;-73
2023/07/28 11:57:12;;;;;;;6.45;5.85;;;23.80;1.00;;;;;;5055399;28;20115;-72
2023/07/28 11:59:38;;;;;;;7.45;6.22;;;23.90;1.00;;;;;;5057866;28;20086;-73
2023/07/28 12:02:05;;;;;;;7.55;5.75;;;24.10;1.00;;;;;;5056125;28;20036;-72
2023/07/28 12:04:36;;;;;;;9.55;8.02;;;23.70;1.00;;;;;;5058704;28;20033;-72
2023/07/28 12:07:06;;;;;;;7.55;6.82;;;23.60;1.00;;;;;;5054099;28;20390;-73
2023/07/28 12:12:26;;;;;;;6.68;5.97;;;23.80;1.00;;;;;;5087331;27;20409;-73
2023/07/28 12:14:52;;;;;;;7.30;6.53;;;23.60;1.00;;;;;;5083878;28;20442;-73
2023/07/28 12:17:20;;;;;;;9.13;7.68;;;23.40;1.00;;;;;;5087158;28;20119;-73
2023/07/28 12:20:10;;;;;;;10.38;9.38;;;23.50;1.00;;;;;;5084815;28;20031;-73
2023/07/28 12:22:38;;;;;;;8.95;8.05;;;23.80;1.00;;;;;;5080058;28;20499;-73
2023/07/28 12:25:04;;;;;;;7.35;6.57;;;23.60;1.00;;;;;;5086014;28;20120;-72
2023/07/28 12:27:30;;;;;;;7.15;6.45;;;23.80;1.00;;;;;;5085730;28;20047;-71
2023/07/28 12:29:56;;;;;;;8.27;7.13;;;24.30;1.00;;;;;;5084589;28;20074;-72
2023/07/28 12:32:22;;;;;;;9.02;8.13;;;24.20;1.00;;;;;;5083970;28;20025;-73
2023/07/28 12:34:49;;;;;;;8.48;7.68;;;24.30;1.00;;;;;;5081253;28;20036;-72